sensor_id;sensor_type;location;lat;lon;timestamp;temperature;humidity
16491;DHT22;8356;51.214;3.270;2023-09-19T00:02:19;436.00;2355.20
16491;DHT22;8356;51.214;3.270;2023-09-19T00:04:45;436.00;2355.20
16491;DHT22;8356;51.214;3.270;2023-09-19T00:07:10;436.00;2355.20
16491;DHT22;8356;51.214;3.270;2023-09-19T00:09:36;435.90;2355.20
16491;DHT22;8356;51.214;3.270;2023-09-19T00:12:06;435.80;2355.20
16491;DHT22;8356;51.214;3.270;2023-09-19T00:14:32;435.80;2355.20
16491;DHT22;8356;51.214;3.270;2023-09-19T00:17:01;435.80;2355.20
16491;DHT22;8356;51.214;3.270;2023-09-19T00:19:36;460.80;2380.80
16491;DHT22;8356;51.214;3.270;2023-09-19T00:22:03;435.80;2355.20
16491;DHT22;8356;51.214;3.270;2023-09-19T00:24:28;435.80;2355.20
16491;DHT22;8356;51.214;3.270;2023-09-19T00:26:54;435.80;2355.20
16491;DHT22;8356;51.214;3.270;2023-09-19T00:29:21;435.90;2355.20
16491;DHT22;8356;51.214;3.270;2023-09-19T00:31:48;435.90;2355.20
16491;DHT22;8356;51.214;3.270;2023-09-19T00:34:15;435.90;2355.20
16491;DHT22;8356;51.214;3.270;2023-09-19T00:36:42;435.80;2355.20
16491;DHT22;8356;51.214;3.270;2023-09-19T00:39:08;435.90;2355.20
16491;DHT22;8356;51.214;3.270;2023-09-19T00:41:35;435.80;2355.20
16491;DHT22;8356;51.214;3.270;2023-09-19T00:44:02;435.80;2355.20
16491;DHT22;8356;51.214;3.270;2023-09-19T00:46:30;435.80;2355.20
16491;DHT22;8356;51.214;3.270;2023-09-19T00:48:56;435.80;2355.20
16491;DHT22;8356;51.214;3.270;2023-09-19T00:51:22;435.80;2355.20
16491;DHT22;8356;51.214;3.270;2023-09-19T00:53:54;435.90;2355.20
16491;DHT22;8356;51.214;3.270;2023-09-19T00:56:20;436.00;2355.20
16491;DHT22;8356;51.214;3.270;2023-09-19T00:58:46;436.00;2355.20
16491;DHT22;8356;51.214;3.270;2023-09-19T01:01:16;435.90;2355.20
16491;DHT22;8356;51.214;3.270;2023-09-19T01:03:42;436.00;2355.20
16491;DHT22;8356;51.214;3.270;2023-09-19T01:06:09;436.00;2355.20
16491;DHT22;8356;51.214;3.270;2023-09-19T01:08:35;435.90;2355.20
16491;DHT22;8356;51.214;3.270;2023-09-19T01:11:21;435.80;2355.20
16491;DHT22;8356;51.214;3.270;2023-09-19T01:16:56;435.80;2355.20
16491;DHT22;8356;51.214;3.270;2023-09-19T01:19:53;435.80;2355.20
16491;DHT22;8356;51.214;3.270;2023-09-19T01:22:26;435.80;2355.20
16491;DHT22;8356;51.214;3.270;2023-09-19T01:25:33;435.80;2355.20
16491;DHT22;8356;51.214;3.270;2023-09-19T01:30:52;435.80;2355.20
16491;DHT22;8356;51.214;3.270;2023-09-19T01:33:23;435.70;2355.20
16491;DHT22;8356;51.214;3.270;2023-09-19T01:35:49;435.60;2355.20
16491;DHT22;8356;51.214;3.270;2023-09-19T01:38:16;435.60;2355.20
16491;DHT22;8356;51.214;3.270;2023-09-19T01:40:43;435.60;2355.20
16491;DHT22;8356;51.214;3.270;2023-09-19T01:43:21;435.60;2355.20
16491;DHT22;8356;51.214;3.270;2023-09-19T01:46:16;435.60;2355.20
16491;DHT22;8356;51.214;3.270;2023-09-19T01:48:57;435.60;2355.20
16491;DHT22;8356;51.214;3.270;2023-09-19T01:54:16;435.60;2355.20
16491;DHT22;8356;51.214;3.270;2023-09-19T01:59:41;435.50;2355.20
16491;DHT22;8356;51.214;3.270;2023-09-19T02:02:09;435.50;2355.20
16491;DHT22;8356;51.214;3.270;2023-09-19T02:04:35;435.50;2355.20
16491;DHT22;8356;51.214;3.270;2023-09-19T02:07:01;435.40;2355.20
16491;DHT22;8356;51.214;3.270;2023-09-19T02:09:26;435.50;2355.20
16491;DHT22;8356;51.214;3.270;2023-09-19T02:11:52;435.50;2355.20
16491;DHT22;8356;51.214;3.270;2023-09-19T02:14:18;435.50;2355.20
16491;DHT22;8356;51.214;3.270;2023-09-19T02:16:45;435.40;2355.20
16491;DHT22;8356;51.214;3.270;2023-09-19T02:19:11;435.40;2355.20
16491;DHT22;8356;51.214;3.270;2023-09-19T02:21:36;435.30;2355.20
16491;DHT22;8356;51.214;3.270;2023-09-19T02:24:06;435.30;2355.20
16491;DHT22;8356;51.214;3.270;2023-09-19T02:26:33;435.40;2355.20
16491;DHT22;8356;51.214;3.270;2023-09-19T02:29:01;435.20;2355.20
16491;DHT22;8356;51.214;3.270;2023-09-19T02:31:30;435.30;2355.20
16491;DHT22;8356;51.214;3.270;2023-09-19T02:33:56;435.40;2355.20
16491;DHT22;8356;51.214;3.270;2023-09-19T02:36:22;435.40;2355.20
16491;DHT22;8356;51.214;3.270;2023-09-19T02:38:49;435.40;2355.20
16491;DHT22;8356;51.214;3.270;2023-09-19T02:41:15;435.40;2355.20
16491;DHT22;8356;51.214;3.270;2023-09-19T02:43:40;435.40;2355.20
16491;DHT22;8356;51.214;3.270;2023-09-19T02:46:08;435.40;2355.20
16491;DHT22;8356;51.214;3.270;2023-09-19T02:48:34;435.40;2355.20
16491;DHT22;8356;51.214;3.270;2023-09-19T02:51:01;435.40;2355.20
16491;DHT22;8356;51.214;3.270;2023-09-19T02:53:27;435.40;2355.20
16491;DHT22;8356;51.214;3.270;2023-09-19T02:55:52;435.40;2355.20
16491;DHT22;8356;51.214;3.270;2023-09-19T02:58:18;435.40;2355.20
16491;DHT22;8356;51.214;3.270;2023-09-19T03:00:45;435.40;2355.20
16491;DHT22;8356;51.214;3.270;2023-09-19T03:03:15;435.50;2355.20
16491;DHT22;8356;51.214;3.270;2023-09-19T03:05:44;435.50;2355.20
16491;DHT22;8356;51.214;3.270;2023-09-19T03:08:16;435.40;2355.20
16491;DHT22;8356;51.214;3.270;2023-09-19T03:10:42;435.30;2355.20
16491;DHT22;8356;51.214;3.270;2023-09-19T03:13:08;435.40;2355.20
16491;DHT22;8356;51.214;3.270;2023-09-19T03:15:35;410.50;2355.20
16491;DHT22;8356;51.214;3.270;2023-09-19T03:18:04;435.40;2355.20
16491;DHT22;8356;51.214;3.270;2023-09-19T03:20:30;435.40;2355.20
16491;DHT22;8356;51.214;3.270;2023-09-19T03:22:56;435.30;2355.20
16491;DHT22;8356;51.214;3.270;2023-09-19T03:25:23;435.30;2355.20
16491;DHT22;8356;51.214;3.270;2023-09-19T03:27:48;435.40;2355.20
16491;DHT22;8356;51.214;3.270;2023-09-19T03:30:14;435.40;2355.20
16491;DHT22;8356;51.214;3.270;2023-09-19T03:32:47;435.40;2355.20
16491;DHT22;8356;51.214;3.270;2023-09-19T03:35:15;435.40;2355.20
16491;DHT22;8356;51.214;3.270;2023-09-19T03:37:42;435.40;2355.20
16491;DHT22;8356;51.214;3.270;2023-09-19T03:40:09;435.70;2355.20
16491;DHT22;8356;51.214;3.270;2023-09-19T03:42:41;435.40;2355.20
16491;DHT22;8356;51.214;3.270;2023-09-19T03:45:08;435.30;2355.20
16491;DHT22;8356;51.214;3.270;2023-09-19T03:47:37;435.30;2355.20
16491;DHT22;8356;51.214;3.270;2023-09-19T03:50:05;435.20;2355.20
16491;DHT22;8356;51.214;3.270;2023-09-19T03:52:30;435.20;2355.20
16491;DHT22;8356;51.214;3.270;2023-09-19T03:54:56;435.20;2355.20
16491;DHT22;8356;51.214;3.270;2023-09-19T03:57:22;435.20;2355.20
16491;DHT22;8356;51.214;3.270;2023-09-19T03:59:47;435.30;2355.20
16491;DHT22;8356;51.214;3.270;2023-09-19T04:02:13;435.30;2355.20
16491;DHT22;8356;51.214;3.270;2023-09-19T04:04:51;435.20;2355.20
16491;DHT22;8356;51.214;3.270;2023-09-19T04:07:17;435.30;2355.20
16491;DHT22;8356;51.214;3.270;2023-09-19T04:09:44;435.40;2355.20
16491;DHT22;8356;51.214;3.270;2023-09-19T04:12:11;435.40;2355.20
16491;DHT22;8356;51.214;3.270;2023-09-19T04:14:36;435.30;2355.20
16491;DHT22;8356;51.214;3.270;2023-09-19T04:17:02;435.20;2355.20
16491;DHT22;8356;51.214;3.270;2023-09-19T04:19:28;435.20;2355.20
16491;DHT22;8356;51.214;3.270;2023-09-19T04:21:54;435.20;2355.20
16491;DHT22;8356;51.214;3.270;2023-09-19T04:24:20;435.20;2355.20
16491;DHT22;8356;51.214;3.270;2023-09-19T04:26:45;435.20;2355.20
16491;DHT22;8356;51.214;3.270;2023-09-19T04:29:11;435.30;2355.20
16491;DHT22;8356;51.214;3.270;2023-09-19T04:31:39;435.30;2355.20
16491;DHT22;8356;51.214;3.270;2023-09-19T04:34:06;410.30;2355.20
16491;DHT22;8356;51.214;3.270;2023-09-19T04:36:31;435.40;2355.20
16491;DHT22;8356;51.214;3.270;2023-09-19T04:38:57;435.20;2355.20
16491;DHT22;8356;51.214;3.270;2023-09-19T04:41:23;435.30;2355.20
16491;DHT22;8356;51.214;3.270;2023-09-19T04:43:48;435.30;2355.20
16491;DHT22;8356;51.214;3.270;2023-09-19T04:46:16;435.30;2355.20
16491;DHT22;8356;51.214;3.270;2023-09-19T04:48:43;435.20;2355.20
16491;DHT22;8356;51.214;3.270;2023-09-19T04:51:09;435.20;2355.20
16491;DHT22;8356;51.214;3.270;2023-09-19T04:53:36;435.20;2355.20
16491;DHT22;8356;51.214;3.270;2023-09-19T04:56:01;435.20;2355.20
16491;DHT22;8356;51.214;3.270;2023-09-19T04:58:29;435.30;2355.20
16491;DHT22;8356;51.214;3.270;2023-09-19T05:00:55;435.30;2355.20
16491;DHT22;8356;51.214;3.270;2023-09-19T05:03:21;435.20;2355.20
16491;DHT22;8356;51.214;3.270;2023-09-19T05:05:48;435.20;2355.20
16491;DHT22;8356;51.214;3.270;2023-09-19T05:08:14;410.50;2355.20
16491;DHT22;8356;51.214;3.270;2023-09-19T05:10:40;435.20;2355.20
16491;DHT22;8356;51.214;3.270;2023-09-19T05:13:06;410.50;2355.20
16491;DHT22;8356;51.214;3.270;2023-09-19T05:15:35;435.30;2355.20
16491;DHT22;8356;51.214;3.270;2023-09-19T05:18:01;435.30;2355.20
16491;DHT22;8356;51.214;3.270;2023-09-19T05:20:27;435.20;2355.20
16491;DHT22;8356;51.214;3.270;2023-09-19T05:23:05;435.30;2355.20
16491;DHT22;8356;51.214;3.270;2023-09-19T05:25:33;435.30;2355.20
16491;DHT22;8356;51.214;3.270;2023-09-19T05:28:03;435.30;2355.20
16491;DHT22;8356;51.214;3.270;2023-09-19T05:30:32;435.30;2355.20
16491;DHT22;8356;51.214;3.270;2023-09-19T05:32:58;435.30;2355.20
16491;DHT22;8356;51.214;3.270;2023-09-19T05:35:24;435.20;2355.20
16491;DHT22;8356;51.214;3.270;2023-09-19T05:37:52;436.00;2355.20
16491;DHT22;8356;51.214;3.270;2023-09-19T05:40:18;435.20;2355.20
16491;DHT22;8356;51.214;3.270;2023-09-19T05:42:45;435.20;2355.20
16491;DHT22;8356;51.214;3.270;2023-09-19T05:45:11;435.20;2355.20
16491;DHT22;8356;51.214;3.270;2023-09-19T05:47:40;436.00;2355.20
16491;DHT22;8356;51.214;3.270;2023-09-19T05:50:11;435.30;2355.20
16491;DHT22;8356;51.214;3.270;2023-09-19T05:52:37;435.30;2355.20
16491;DHT22;8356;51.214;3.270;2023-09-19T05:55:07;435.30;2355.20
16491;DHT22;8356;51.214;3.270;2023-09-19T05:57:34;410.40;2355.20
16491;DHT22;8356;51.214;3.270;2023-09-19T05:59:59;435.60;2355.20
16491;DHT22;8356;51.214;3.270;2023-09-19T06:02:25;410.50;2355.20
16491;DHT22;8356;51.214;3.270;2023-09-19T06:04:55;410.50;2355.20
16491;DHT22;8356;51.214;3.270;2023-09-19T06:07:22;410.50;2355.20
16491;DHT22;8356;51.214;3.270;2023-09-19T06:09:52;410.50;2355.20
16491;DHT22;8356;51.214;3.270;2023-09-19T06:12:19;410.50;2355.20
16491;DHT22;8356;51.214;3.270;2023-09-19T06:14:44;435.20;2355.20
16491;DHT22;8356;51.214;3.270;2023-09-19T06:17:10;435.20;2355.20
16491;DHT22;8356;51.214;3.270;2023-09-19T06:19:36;435.20;2355.20
16491;DHT22;8356;51.214;3.270;2023-09-19T06:22:01;435.20;2355.20
16491;DHT22;8356;51.214;3.270;2023-09-19T06:24:27;435.20;2355.20
16491;DHT22;8356;51.214;3.270;2023-09-19T06:26:53;435.30;2355.20
16491;DHT22;8356;51.214;3.270;2023-09-19T06:29:20;435.40;2355.20
16491;DHT22;8356;51.214;3.270;2023-09-19T06:31:48;435.30;2355.20
16491;DHT22;8356;51.214;3.270;2023-09-19T06:34:14;435.40;2355.20
16491;DHT22;8356;51.214;3.270;2023-09-19T06:36:41;435.40;2355.20
16491;DHT22;8356;51.214;3.270;2023-09-19T06:39:07;435.40;2355.20
16491;DHT22;8356;51.214;3.270;2023-09-19T06:41:37;435.40;2355.20
16491;DHT22;8356;51.214;3.270;2023-09-19T06:44:04;435.50;2355.20
16491;DHT22;8356;51.214;3.270;2023-09-19T06:46:31;435.60;2355.20
16491;DHT22;8356;51.214;3.270;2023-09-19T06:49:00;435.60;2355.20
16491;DHT22;8356;51.214;3.270;2023-09-19T06:51:28;435.70;2355.20
16491;DHT22;8356;51.214;3.270;2023-09-19T06:53:55;435.60;2355.20
16491;DHT22;8356;51.214;3.270;2023-09-19T06:56:22;435.70;2355.20
16491;DHT22;8356;51.214;3.270;2023-09-19T06:58:50;435.70;2355.20
16491;DHT22;8356;51.214;3.270;2023-09-19T07:01:15;435.70;2355.20
16491;DHT22;8356;51.214;3.270;2023-09-19T07:03:41;435.80;2355.20
16491;DHT22;8356;51.214;3.270;2023-09-19T07:06:07;435.90;2355.20
16491;DHT22;8356;51.214;3.270;2023-09-19T07:08:34;435.90;2355.20
16491;DHT22;8356;51.214;3.270;2023-09-19T07:10:59;435.90;2355.20
16491;DHT22;8356;51.214;3.270;2023-09-19T07:13:25;436.10;2355.20
16491;DHT22;8356;51.214;3.270;2023-09-19T07:15:51;436.10;2355.20
16491;DHT22;8356;51.214;3.270;2023-09-19T07:18:17;460.80;2380.80
16491;DHT22;8356;51.214;3.270;2023-09-19T07:20:44;460.90;2380.80
16491;DHT22;8356;51.214;3.270;2023-09-19T07:23:20;460.90;2380.80
16491;DHT22;8356;51.214;3.270;2023-09-19T07:25:46;460.90;2380.80
16491;DHT22;8356;51.214;3.270;2023-09-19T07:28:12;460.90;2380.80
16491;DHT22;8356;51.214;3.270;2023-09-19T07:30:38;460.90;2380.80
16491;DHT22;8356;51.214;3.270;2023-09-19T07:33:04;460.90;2380.80
16491;DHT22;8356;51.214;3.270;2023-09-19T07:35:31;461.00;2380.80
16491;DHT22;8356;51.214;3.270;2023-09-19T07:37:56;461.00;2380.80
16491;DHT22;8356;51.214;3.270;2023-09-19T07:40:23;461.10;2380.80
16491;DHT22;8356;51.214;3.270;2023-09-19T07:42:52;461.10;2380.80
16491;DHT22;8356;51.214;3.270;2023-09-19T07:45:18;461.10;2380.80
16491;DHT22;8356;51.214;3.270;2023-09-19T07:47:47;461.10;2380.80
16491;DHT22;8356;51.214;3.270;2023-09-19T07:50:14;461.10;2380.80
16491;DHT22;8356;51.214;3.270;2023-09-19T07:52:41;461.10;2380.80
16491;DHT22;8356;51.214;3.270;2023-09-19T07:55:08;461.30;2380.80
16491;DHT22;8356;51.214;3.270;2023-09-19T07:57:35;461.30;2380.80
16491;DHT22;8356;51.214;3.270;2023-09-19T08:00:01;461.40;2380.80
16491;DHT22;8356;51.214;3.270;2023-09-19T08:02:33;461.50;2380.80
16491;DHT22;8356;51.214;3.270;2023-09-19T08:04:59;461.50;2380.80
16491;DHT22;8356;51.214;3.270;2023-09-19T08:07:26;461.60;2380.80
16491;DHT22;8356;51.214;3.270;2023-09-19T08:09:51;461.60;2380.80
16491;DHT22;8356;51.214;3.270;2023-09-19T08:12:17;461.70;2380.80
16491;DHT22;8356;51.214;3.270;2023-09-19T08:14:43;461.70;2380.80
16491;DHT22;8356;51.214;3.270;2023-09-19T08:17:09;461.70;2380.80
16491;DHT22;8356;51.214;3.270;2023-09-19T08:19:34;461.60;2380.80
16491;DHT22;8356;51.214;3.270;2023-09-19T08:22:02;461.60;2380.80
16491;DHT22;8356;51.214;3.270;2023-09-19T08:24:29;461.60;2380.80
16491;DHT22;8356;51.214;3.270;2023-09-19T08:26:56;461.60;2380.80
16491;DHT22;8356;51.214;3.270;2023-09-19T08:29:23;461.60;2380.80
16491;DHT22;8356;51.214;3.270;2023-09-19T08:31:54;461.60;2380.80
16491;DHT22;8356;51.214;3.270;2023-09-19T08:34:20;461.60;2380.80
16491;DHT22;8356;51.214;3.270;2023-09-19T08:36:47;461.60;2380.80
16491;DHT22;8356;51.214;3.270;2023-09-19T08:39:13;486.40;2380.80
16491;DHT22;8356;51.214;3.270;2023-09-19T08:41:39;486.50;2380.80
16491;DHT22;8356;51.214;3.270;2023-09-19T08:44:05;486.60;2380.80
16491;DHT22;8356;51.214;3.270;2023-09-19T08:46:34;486.60;2380.80
16491;DHT22;8356;51.214;3.270;2023-09-19T08:49:04;486.70;2380.80
16491;DHT22;8356;51.214;3.270;2023-09-19T08:51:45;486.80;2380.80
16491;DHT22;8356;51.214;3.270;2023-09-19T08:54:41;486.70;2380.80
16491;DHT22;8356;51.214;3.270;2023-09-19T08:57:09;486.80;2380.80
16491;DHT22;8356;51.214;3.270;2023-09-19T08:59:38;486.80;2380.80
16491;DHT22;8356;51.214;3.270;2023-09-19T09:02:11;486.80;2380.80
16491;DHT22;8356;51.214;3.270;2023-09-19T09:04:40;486.80;2380.80
16491;DHT22;8356;51.214;3.270;2023-09-19T09:07:12;486.80;2380.80
16491;DHT22;8356;51.214;3.270;2023-09-19T09:09:39;486.90;2380.80
16491;DHT22;8356;51.214;3.270;2023-09-19T09:12:12;487.20;2380.80
16491;DHT22;8356;51.214;3.270;2023-09-19T09:14:39;512.10;2380.80
16491;DHT22;8356;51.214;3.270;2023-09-19T09:17:05;512.20;2380.80
16491;DHT22;8356;51.214;3.270;2023-09-19T09:19:32;512.50;2380.80
16491;DHT22;8356;51.214;3.270;2023-09-19T09:22:08;512.80;2380.80
16491;DHT22;8356;51.214;3.270;2023-09-19T09:24:34;537.80;2406.40
16491;DHT22;8356;51.214;3.270;2023-09-19T09:27:04;538.10;2406.40
16491;DHT22;8356;51.214;3.270;2023-09-19T09:32:22;538.40;2406.40
16491;DHT22;8356;51.214;3.270;2023-09-19T09:34:55;538.50;2406.40
16491;DHT22;8356;51.214;3.270;2023-09-19T09:37:22;563.20;2432.00
16491;DHT22;8356;51.214;3.270;2023-09-19T09:39:57;538.40;2406.40
16491;DHT22;8356;51.214;3.270;2023-09-19T09:42:36;538.30;2406.40
16491;DHT22;8356;51.214;3.270;2023-09-19T09:45:18;538.30;2406.40
16491;DHT22;8356;51.214;3.270;2023-09-19T09:48:03;538.30;2406.40
16491;DHT22;8356;51.214;3.270;2023-09-19T09:50:36;538.40;2406.40
16491;DHT22;8356;51.214;3.270;2023-09-19T09:53:29;538.10;2406.40
16491;DHT22;8356;51.214;3.270;2023-09-19T09:56:05;563.30;2432.00
16491;DHT22;8356;51.214;3.270;2023-09-19T09:58:36;538.50;2406.40
16491;DHT22;8356;51.214;3.270;2023-09-19T10:01:03;563.30;2432.00
16491;DHT22;8356;51.214;3.270;2023-09-19T10:03:40;563.40;2432.00
16491;DHT22;8356;51.214;3.270;2023-09-19T10:06:11;563.20;2432.00
16491;DHT22;8356;51.214;3.270;2023-09-19T10:09:03;563.50;2432.00
16491;DHT22;8356;51.214;3.270;2023-09-19T10:11:37;563.90;2432.00
16491;DHT22;8356;51.214;3.270;2023-09-19T10:14:06;564.00;2432.00
16491;DHT22;8356;51.214;3.270;2023-09-19T10:16:34;563.90;2432.00
16491;DHT22;8356;51.214;3.270;2023-09-19T10:19:06;563.90;2432.00
16491;DHT22;8356;51.214;3.270;2023-09-19T10:21:36;563.80;2432.00
16491;DHT22;8356;51.214;3.270;2023-09-19T10:24:03;563.70;2432.00
16491;DHT22;8356;51.214;3.270;2023-09-19T10:26:30;563.60;2432.00
16491;DHT22;8356;51.214;3.270;2023-09-19T10:28:57;563.40;2432.00
16491;DHT22;8356;51.214;3.270;2023-09-19T10:31:28;563.20;2432.00
16491;DHT22;8356;51.214;3.270;2023-09-19T10:33:55;538.50;2406.40
16491;DHT22;8356;51.214;3.270;2023-09-19T10:36:26;538.30;2406.40
16491;DHT22;8356;51.214;3.270;2023-09-19T10:38:54;538.20;2406.40
16491;DHT22;8356;51.214;3.270;2023-09-19T10:41:22;538.10;2406.40
16491;DHT22;8356;51.214;3.270;2023-09-19T10:43:48;538.00;2406.40
16491;DHT22;8356;51.214;3.270;2023-09-19T10:46:16;537.80;2406.40
16491;DHT22;8356;51.214;3.270;2023-09-19T10:48:42;537.90;2406.40
16491;DHT22;8356;51.214;3.270;2023-09-19T10:51:20;537.90;2406.40
16491;DHT22;8356;51.214;3.270;2023-09-19T10:53:58;537.90;2406.40
16491;DHT22;8356;51.214;3.270;2023-09-19T10:56:36;537.90;2406.40
16491;DHT22;8356;51.214;3.270;2023-09-19T10:59:09;537.90;2406.40
16491;DHT22;8356;51.214;3.270;2023-09-19T11:01:55;537.80;2406.40
16491;DHT22;8356;51.214;3.270;2023-09-19T11:04:35;537.80;2406.40
16491;DHT22;8356;51.214;3.270;2023-09-19T11:07:05;537.80;2406.40
16491;DHT22;8356;51.214;3.270;2023-09-19T11:09:47;538.00;2406.40
16491;DHT22;8356;51.214;3.270;2023-09-19T11:14:58;538.30;2406.40
16491;DHT22;8356;51.214;3.270;2023-09-19T11:17:34;538.30;2406.40
16491;DHT22;8356;51.214;3.270;2023-09-19T11:30:41;538.10;2406.40
16491;DHT22;8356;51.214;3.270;2023-09-19T11:33:32;538.20;2406.40
16491;DHT22;8356;51.214;3.270;2023-09-19T11:36:12;538.30;2406.40
16491;DHT22;8356;51.214;3.270;2023-09-19T11:43:49;563.20;2432.00
16491;DHT22;8356;51.214;3.270;2023-09-19T11:46:20;563.30;2432.00
16491;DHT22;8356;51.214;3.270;2023-09-19T11:48:51;563.60;2432.00
16491;DHT22;8356;51.214;3.270;2023-09-19T11:51:24;563.60;2432.00
16491;DHT22;8356;51.214;3.270;2023-09-19T11:53:57;563.80;2432.00
16491;DHT22;8356;51.214;3.270;2023-09-19T11:56:26;563.70;2432.00
16491;DHT22;8356;51.214;3.270;2023-09-19T11:58:57;563.60;2432.00
16491;DHT22;8356;51.214;3.270;2023-09-19T12:01:30;563.50;2432.00
16491;DHT22;8356;51.214;3.270;2023-09-19T12:04:00;563.40;2432.00
16491;DHT22;8356;51.214;3.270;2023-09-19T12:06:27;563.30;2432.00
16491;DHT22;8356;51.214;3.270;2023-09-19T12:08:55;563.40;2432.00
16491;DHT22;8356;51.214;3.270;2023-09-19T12:11:23;563.40;2432.00
16491;DHT22;8356;51.214;3.270;2023-09-19T12:13:49;563.40;2432.00
16491;DHT22;8356;51.214;3.270;2023-09-19T12:16:17;563.40;2432.00
16491;DHT22;8356;51.214;3.270;2023-09-19T12:18:44;563.70;2432.00
16491;DHT22;8356;51.214;3.270;2023-09-19T12:21:30;563.90;2432.00
16491;DHT22;8356;51.214;3.270;2023-09-19T12:24:04;563.80;2432.00
16491;DHT22;8356;51.214;3.270;2023-09-19T12:26:38;563.80;2432.00
16491;DHT22;8356;51.214;3.270;2023-09-19T12:29:11;563.70;2432.00
16491;DHT22;8356;51.214;3.270;2023-09-19T12:31:50;563.60;2432.00
16491;DHT22;8356;51.214;3.270;2023-09-19T12:34:20;563.60;2432.00
16491;DHT22;8356;51.214;3.270;2023-09-19T12:36:47;563.50;2432.00
16491;DHT22;8356;51.214;3.270;2023-09-19T12:39:23;563.40;2432.00
16491;DHT22;8356;51.214;3.270;2023-09-19T12:41:50;563.20;2432.00
16491;DHT22;8356;51.214;3.270;2023-09-19T12:44:17;563.90;2432.00
16491;DHT22;8356;51.214;3.270;2023-09-19T12:46:44;538.40;2406.40
16491;DHT22;8356;51.214;3.270;2023-09-19T12:49:19;538.30;2406.40
16491;DHT22;8356;51.214;3.270;2023-09-19T12:51:49;538.20;2406.40
16491;DHT22;8356;51.214;3.270;2023-09-19T12:54:15;538.20;2406.40
16491;DHT22;8356;51.214;3.270;2023-09-19T12:56:45;538.10;2406.40
16491;DHT22;8356;51.214;3.270;2023-09-19T12:59:13;538.20;2406.40
16491;DHT22;8356;51.214;3.270;2023-09-19T13:01:42;538.30;2406.40
16491;DHT22;8356;51.214;3.270;2023-09-19T13:04:18;538.30;2406.40
16491;DHT22;8356;51.214;3.270;2023-09-19T13:06:51;538.30;2406.40
16491;DHT22;8356;51.214;3.270;2023-09-19T13:09:19;538.20;2406.40
16491;DHT22;8356;51.214;3.270;2023-09-19T13:11:46;538.20;2406.40
16491;DHT22;8356;51.214;3.270;2023-09-19T13:14:28;538.10;2406.40
16491;DHT22;8356;51.214;3.270;2023-09-19T13:17:06;538.10;2406.40
16491;DHT22;8356;51.214;3.270;2023-09-19T13:19:43;538.00;2406.40
16491;DHT22;8356;51.214;3.270;2023-09-19T13:22:43;537.80;2406.40
16491;DHT22;8356;51.214;3.270;2023-09-19T13:25:20;537.80;2406.40
16491;DHT22;8356;51.214;3.270;2023-09-19T13:27:51;537.70;2406.40
16491;DHT22;8356;51.214;3.270;2023-09-19T13:30:18;537.70;2406.40
16491;DHT22;8356;51.214;3.270;2023-09-19T13:32:44;512.90;2380.80
16491;DHT22;8356;51.214;3.270;2023-09-19T13:35:12;538.00;2406.40
16491;DHT22;8356;51.214;3.270;2023-09-19T13:37:38;538.00;2406.40
16491;DHT22;8356;51.214;3.270;2023-09-19T13:40:08;538.50;2406.40
16491;DHT22;8356;51.214;3.270;2023-09-19T13:42:35;563.20;2432.00
16491;DHT22;8356;51.214;3.270;2023-09-19T13:45:02;563.20;2432.00
16491;DHT22;8356;51.214;3.270;2023-09-19T13:47:30;563.20;2432.00
16491;DHT22;8356;51.214;3.270;2023-09-19T13:49:56;538.50;2406.40
16491;DHT22;8356;51.214;3.270;2023-09-19T13:52:22;538.40;2406.40
16491;DHT22;8356;51.214;3.270;2023-09-19T13:54:51;538.30;2406.40
16491;DHT22;8356;51.214;3.270;2023-09-19T13:57:18;538.40;2406.40
16491;DHT22;8356;51.214;3.270;2023-09-19T13:59:44;563.20;2432.00
16491;DHT22;8356;51.214;3.270;2023-09-19T14:02:09;563.20;2432.00
16491;DHT22;8356;51.214;3.270;2023-09-19T14:04:35;563.30;2432.00
16491;DHT22;8356;51.214;3.270;2023-09-19T14:07:01;563.30;2432.00
16491;DHT22;8356;51.214;3.270;2023-09-19T14:09:27;563.60;2432.00
16491;DHT22;8356;51.214;3.270;2023-09-19T14:11:53;563.30;2432.00
16491;DHT22;8356;51.214;3.270;2023-09-19T14:14:19;563.30;2432.00
16491;DHT22;8356;51.214;3.270;2023-09-19T14:16:49;563.20;2432.00
16491;DHT22;8356;51.214;3.270;2023-09-19T14:19:14;563.20;2432.00
16491;DHT22;8356;51.214;3.270;2023-09-19T14:21:41;538.40;2406.40
16491;DHT22;8356;51.214;3.270;2023-09-19T14:24:07;538.40;2406.40
16491;DHT22;8356;51.214;3.270;2023-09-19T14:26:40;538.40;2406.40
16491;DHT22;8356;51.214;3.270;2023-09-19T14:29:06;538.30;2406.40
16491;DHT22;8356;51.214;3.270;2023-09-19T14:31:33;538.20;2406.40
16491;DHT22;8356;51.214;3.270;2023-09-19T14:33:59;538.20;2406.40
16491;DHT22;8356;51.214;3.270;2023-09-19T14:36:25;538.00;2406.40
16491;DHT22;8356;51.214;3.270;2023-09-19T14:38:55;538.00;2406.40
16491;DHT22;8356;51.214;3.270;2023-09-19T14:41:22;538.00;2406.40
16491;DHT22;8356;51.214;3.270;2023-09-19T14:43:48;538.20;2406.40
16491;DHT22;8356;51.214;3.270;2023-09-19T14:46:14;538.10;2406.40
16491;DHT22;8356;51.214;3.270;2023-09-19T14:48:40;538.10;2406.40
16491;DHT22;8356;51.214;3.270;2023-09-19T14:51:07;538.10;2406.40
16491;DHT22;8356;51.214;3.270;2023-09-19T14:53:37;538.10;2406.40
16491;DHT22;8356;51.214;3.270;2023-09-19T14:56:07;538.10;2406.40
16491;DHT22;8356;51.214;3.270;2023-09-19T14:58:33;538.00;2406.40
16491;DHT22;8356;51.214;3.270;2023-09-19T15:01:12;538.00;2406.40
16491;DHT22;8356;51.214;3.270;2023-09-19T15:03:42;537.90;2406.40
16491;DHT22;8356;51.214;3.270;2023-09-19T15:06:11;537.90;2406.40
16491;DHT22;8356;51.214;3.270;2023-09-19T15:08:41;537.90;2406.40
16491;DHT22;8356;51.214;3.270;2023-09-19T15:11:11;537.90;2406.40
16491;DHT22;8356;51.214;3.270;2023-09-19T15:13:38;537.90;2406.40
16491;DHT22;8356;51.214;3.270;2023-09-19T15:16:05;538.00;2406.40
16491;DHT22;8356;51.214;3.270;2023-09-19T15:18:34;538.00;2406.40
16491;DHT22;8356;51.214;3.270;2023-09-19T15:21:03;563.40;2432.00
16491;DHT22;8356;51.214;3.270;2023-09-19T15:23:33;537.90;2406.40
16491;DHT22;8356;51.214;3.270;2023-09-19T15:26:00;537.90;2406.40
16491;DHT22;8356;51.214;3.270;2023-09-19T15:28:27;537.90;2406.40
16491;DHT22;8356;51.214;3.270;2023-09-19T15:31:01;537.80;2406.40
16491;DHT22;8356;51.214;3.270;2023-09-19T15:33:27;537.90;2406.40
16491;DHT22;8356;51.214;3.270;2023-09-19T15:36:13;537.90;2406.40
16491;DHT22;8356;51.214;3.270;2023-09-19T15:39:08;537.90;2406.40
16491;DHT22;8356;51.214;3.270;2023-09-19T15:41:40;537.80;2406.40
16491;DHT22;8356;51.214;3.270;2023-09-19T15:44:14;537.80;2406.40
16491;DHT22;8356;51.214;3.270;2023-09-19T15:46:40;537.80;2406.40
16491;DHT22;8356;51.214;3.270;2023-09-19T15:49:07;537.80;2406.40